sensor_id;sensor_type;location;lat;lon;timestamp;temperature;humidity
23540;DHT22;11947;50.810;4.394;2022-10-31T00:00:48;15.30;99.90
23540;DHT22;11947;50.810;4.394;2022-10-31T00:03:34;15.30;99.90
23540;DHT22;11947;50.810;4.394;2022-10-31T00:06:05;15.30;99.90
23540;DHT22;11947;50.810;4.394;2022-10-31T00:09:04;15.20;99.90
23540;DHT22;11947;50.810;4.394;2022-10-31T00:11:30;15.20;99.90
23540;DHT22;11947;50.810;4.394;2022-10-31T00:14:27;15.20;99.90
23540;DHT22;11947;50.810;4.394;2022-10-31T00:16:53;15.20;99.90
23540;DHT22;11947;50.810;4.394;2022-10-31T00:19:36;15.10;99.90
23540;DHT22;11947;50.810;4.394;2022-10-31T00:47:59;14.60;99.90
23540;DHT22;11947;50.810;4.394;2022-10-31T06:52:05;13.40;99.90
23540;DHT22;11947;50.810;4.394;2022-10-31T07:56:56;14.10;99.90
23540;DHT22;11947;50.810;4.394;2022-10-31T07:59:21;14.20;99.90
23540;DHT22;11947;50.810;4.394;2022-10-31T08:01:47;14.30;99.90
23540;DHT22;11947;50.810;4.394;2022-10-31T08:04:13;14.30;99.90
23540;DHT22;11947;50.810;4.394;2022-10-31T08:06:38;14.40;99.90
23540;DHT22;11947;50.810;4.394;2022-10-31T08:09:05;14.50;99.90
23540;DHT22;11947;50.810;4.394;2022-10-31T08:11:33;14.60;99.90
23540;DHT22;11947;50.810;4.394;2022-10-31T08:13:58;14.70;99.90
23540;DHT22;11947;50.810;4.394;2022-10-31T08:16:27;14.80;99.90
23540;DHT22;11947;50.810;4.394;2022-10-31T08:19:03;14.90;99.90
23540;DHT22;11947;50.810;4.394;2022-10-31T08:21:29;14.90;99.90
23540;DHT22;11947;50.810;4.394;2022-10-31T08:23:56;14.90;99.90
23540;DHT22;11947;50.810;4.394;2022-10-31T08:26:23;15.00;99.90
23540;DHT22;11947;50.810;4.394;2022-10-31T08:28:57;15.10;99.90
23540;DHT22;11947;50.810;4.394;2022-10-31T08:31:23;15.20;99.90
23540;DHT22;11947;50.810;4.394;2022-10-31T08:34:01;15.20;99.90
23540;DHT22;11947;50.810;4.394;2022-10-31T08:36:46;15.20;99.90
23540;DHT22;11947;50.810;4.394;2022-10-31T08:39:12;15.30;99.90
23540;DHT22;11947;50.810;4.394;2022-10-31T08:41:37;15.20;99.90
23540;DHT22;11947;50.810;4.394;2022-10-31T08:44:03;15.30;99.90
23540;DHT22;11947;50.810;4.394;2022-10-31T08:46:30;15.20;99.90
23540;DHT22;11947;50.810;4.394;2022-10-31T08:48:57;15.20;99.90
23540;DHT22;11947;50.810;4.394;2022-10-31T08:51:23;15.30;99.90
23540;DHT22;11947;50.810;4.394;2022-10-31T08:53:55;15.40;99.90
23540;DHT22;11947;50.810;4.394;2022-10-31T08:56:20;15.50;99.90
23540;DHT22;11947;50.810;4.394;2022-10-31T08:58:47;15.40;99.90
23540;DHT22;11947;50.810;4.394;2022-10-31T09:01:13;15.40;99.90
23540;DHT22;11947;50.810;4.394;2022-10-31T09:03:40;15.50;99.90
23540;DHT22;11947;50.810;4.394;2022-10-31T09:06:10;15.60;99.90
23540;DHT22;11947;50.810;4.394;2022-10-31T09:08:39;15.80;99.90
23540;DHT22;11947;50.810;4.394;2022-10-31T09:11:04;15.80;99.90
23540;DHT22;11947;50.810;4.394;2022-10-31T09:13:38;15.80;99.90
23540;DHT22;11947;50.810;4.394;2022-10-31T09:16:03;15.50;99.90
23540;DHT22;11947;50.810;4.394;2022-10-31T09:18:29;15.40;99.90
23540;DHT22;11947;50.810;4.394;2022-10-31T09:20:58;15.40;99.90
23540;DHT22;11947;50.810;4.394;2022-10-31T09:23:24;15.20;99.90
23540;DHT22;11947;50.810;4.394;2022-10-31T09:25:52;15.20;99.90
23540;DHT22;11947;50.810;4.394;2022-10-31T09:28:21;15.10;99.90
23540;DHT22;11947;50.810;4.394;2022-10-31T09:30:50;15.10;99.90
23540;DHT22;11947;50.810;4.394;2022-10-31T09:33:19;15.30;99.90
23540;DHT22;11947;50.810;4.394;2022-10-31T09:35:47;15.30;99.90
23540;DHT22;11947;50.810;4.394;2022-10-31T09:38:19;15.50;99.90
23540;DHT22;11947;50.810;4.394;2022-10-31T09:41:07;15.60;99.90
23540;DHT22;11947;50.810;4.394;2022-10-31T09:49:12;15.50;99.90
23540;DHT22;11947;50.810;4.394;2022-10-31T09:54:48;15.70;99.90
23540;DHT22;11947;50.810;4.394;2022-10-31T09:57:22;15.90;99.90
23540;DHT22;11947;50.810;4.394;2022-10-31T10:05:08;16.20;99.90
23540;DHT22;11947;50.810;4.394;2022-10-31T10:07:49;16.10;99.90
23540;DHT22;11947;50.810;4.394;2022-10-31T10:10:20;16.00;99.90
23540;DHT22;11947;50.810;4.394;2022-10-31T10:22:02;16.20;99.90
23540;DHT22;11947;50.810;4.394;2022-10-31T10:30:28;16.70;99.90
23540;DHT22;11947;50.810;4.394;2022-10-31T10:33:27;16.90;99.90
23540;DHT22;11947;50.810;4.394;2022-10-31T10:36:00;17.10;99.90
23540;DHT22;11947;50.810;4.394;2022-10-31T10:38:37;17.10;99.90
23540;DHT22;11947;50.810;4.394;2022-10-31T10:43:41;16.80;99.90
23540;DHT22;11947;50.810;4.394;2022-10-31T10:49:36;16.70;99.90
23540;DHT22;11947;50.810;4.394;2022-10-31T10:55:14;17.00;99.90
23540;DHT22;11947;50.810;4.394;2022-10-31T10:58:03;17.30;99.90
23540;DHT22;11947;50.810;4.394;2022-10-31T11:02:57;17.40;99.90
23540;DHT22;11947;50.810;4.394;2022-10-31T11:08:03;17.50;99.90
23540;DHT22;11947;50.810;4.394;2022-10-31T11:10:30;17.40;99.90
23540;DHT22;11947;50.810;4.394;2022-10-31T11:15:54;17.60;99.90
23540;DHT22;11947;50.810;4.394;2022-10-31T11:18:23;17.70;99.90
23540;DHT22;11947;50.810;4.394;2022-10-31T11:20:56;17.80;99.90
23540;DHT22;11947;50.810;4.394;2022-10-31T11:23:24;18.10;99.90
23540;DHT22;11947;50.810;4.394;2022-10-31T11:25:52;18.20;99.90
23540;DHT22;11947;50.810;4.394;2022-10-31T11:28:19;18.50;99.90
23540;DHT22;11947;50.810;4.394;2022-10-31T11:30:54;18.50;99.90
23540;DHT22;11947;50.810;4.394;2022-10-31T11:33:36;18.60;99.90
23540;DHT22;11947;50.810;4.394;2022-10-31T11:36:18;18.50;99.90
23540;DHT22;11947;50.810;4.394;2022-10-31T11:38:46;18.40;99.90
23540;DHT22;11947;50.810;4.394;2022-10-31T11:41:15;18.50;99.90
23540;DHT22;11947;50.810;4.394;2022-10-31T11:43:55;18.40;99.90
23540;DHT22;11947;50.810;4.394;2022-10-31T11:48:59;18.10;99.90
23540;DHT22;11947;50.810;4.394;2022-10-31T11:51:29;17.80;99.90
23540;DHT22;11947;50.810;4.394;2022-10-31T11:53:58;17.90;99.90
23540;DHT22;11947;50.810;4.394;2022-10-31T11:56:24;18.20;99.90
23540;DHT22;11947;50.810;4.394;2022-10-31T12:44:12;33.80;99.50
23540;DHT22;11947;50.810;4.394;2022-10-31T12:53:19;32.50;99.90
23540;DHT22;11947;50.810;4.394;2022-10-31T13:05:48;35.40;94.80
23540;DHT22;11947;50.810;4.394;2022-10-31T13:12:28;34.50;95.10
23540;DHT22;11947;50.810;4.394;2022-10-31T13:29:30;28.80;99.90
23540;DHT22;11947;50.810;4.394;2022-10-31T13:45:24;23.00;99.90
23540;DHT22;11947;50.810;4.394;2022-10-31T13:50:42;22.30;99.90
23540;DHT22;11947;50.810;4.394;2022-10-31T13:53:20;22.10;99.90
23540;DHT22;11947;50.810;4.394;2022-10-31T13:55:49;21.50;99.90
23540;DHT22;11947;50.810;4.394;2022-10-31T13:58:29;21.10;99.90
23540;DHT22;11947;50.810;4.394;2022-10-31T14:01:14;20.70;99.90
23540;DHT22;11947;50.810;4.394;2022-10-31T14:03:44;20.40;99.90
23540;DHT22;11947;50.810;4.394;2022-10-31T14:06:11;20.30;99.90
23540;DHT22;11947;50.810;4.394;2022-10-31T14:08:57;20.10;99.90
23540;DHT22;11947;50.810;4.394;2022-10-31T14:11:25;20.00;99.90
23540;DHT22;11947;50.810;4.394;2022-10-31T14:13:54;20.10;99.90
23540;DHT22;11947;50.810;4.394;2022-10-31T14:16:24;19.90;99.90
23540;DHT22;11947;50.810;4.394;2022-10-31T14:19:21;19.70;99.90
23540;DHT22;11947;50.810;4.394;2022-10-31T14:21:50;19.60;99.90
23540;DHT22;11947;50.810;4.394;2022-10-31T14:24:36;19.50;99.90
23540;DHT22;11947;50.810;4.394;2022-10-31T14:29:53;19.50;99.90
23540;DHT22;11947;50.810;4.394;2022-10-31T14:32:23;19.40;99.90
23540;DHT22;11947;50.810;4.394;2022-10-31T14:37:40;19.40;99.90
23540;DHT22;11947;50.810;4.394;2022-10-31T14:43:16;19.10;99.90
23540;DHT22;11947;50.810;4.394;2022-10-31T14:45:54;19.10;99.90
23540;DHT22;11947;50.810;4.394;2022-10-31T14:51:20;19.20;99.90
23540;DHT22;11947;50.810;4.394;2022-10-31T14:53:52;19.10;99.90
23540;DHT22;11947;50.810;4.394;2022-10-31T14:56:30;19.20;99.90
23540;DHT22;11947;50.810;4.394;2022-10-31T14:59:03;19.20;99.90
23540;DHT22;11947;50.810;4.394;2022-10-31T15:01:34;19.40;99.90
23540;DHT22;11947;50.810;4.394;2022-10-31T15:04:22;19.50;99.90
23540;DHT22;11947;50.810;4.394;2022-10-31T15:07:02;19.30;99.90
23540;DHT22;11947;50.810;4.394;2022-10-31T15:09:33;19.30;99.90
23540;DHT22;11947;50.810;4.394;2022-10-31T15:12:00;19.10;99.90
23540;DHT22;11947;50.810;4.394;2022-10-31T15:14:30;18.90;99.90
23540;DHT22;11947;50.810;4.394;2022-10-31T15:16:58;18.80;99.90
23540;DHT22;11947;50.810;4.394;2022-10-31T15:19:29;18.70;99.90
23540;DHT22;11947;50.810;4.394;2022-10-31T15:21:57;18.70;99.90
23540;DHT22;11947;50.810;4.394;2022-10-31T15:24:26;18.70;99.90
23540;DHT22;11947;50.810;4.394;2022-10-31T15:26:55;18.50;99.90
23540;DHT22;11947;50.810;4.394;2022-10-31T15:29:25;18.40;99.90
23540;DHT22;11947;50.810;4.394;2022-10-31T15:36:58;18.10;99.90
23540;DHT22;11947;50.810;4.394;2022-10-31T15:39:24;18.00;99.90
23540;DHT22;11947;50.810;4.394;2022-10-31T15:46:59;17.90;99.90
23540;DHT22;11947;50.810;4.394;2022-10-31T15:49:29;18.00;99.90
23540;DHT22;11947;50.810;4.394;2022-10-31T15:51:57;18.00;99.90
23540;DHT22;11947;50.810;4.394;2022-10-31T15:54:25;17.90;99.90
23540;DHT22;11947;50.810;4.394;2022-10-31T15:56:54;17.90;99.90
23540;DHT22;11947;50.810;4.394;2022-10-31T15:59:22;18.00;99.90
23540;DHT22;11947;50.810;4.394;2022-10-31T16:02:00;17.90;99.90
23540;DHT22;11947;50.810;4.394;2022-10-31T16:04:26;18.00;99.90
23540;DHT22;11947;50.810;4.394;2022-10-31T16:07:11;18.00;99.90
23540;DHT22;11947;50.810;4.394;2022-10-31T16:09:37;17.90;99.90
23540;DHT22;11947;50.810;4.394;2022-10-31T16:12:17;17.80;99.90
23540;DHT22;11947;50.810;4.394;2022-10-31T16:14:43;17.70;99.90
23540;DHT22;11947;50.810;4.394;2022-10-31T16:17:14;17.80;99.90
23540;DHT22;11947;50.810;4.394;2022-10-31T16:19:51;17.80;99.90
23540;DHT22;11947;50.810;4.394;2022-10-31T16:22:29;17.80;99.90
23540;DHT22;11947;50.810;4.394;2022-10-31T16:25:00;17.70;99.90
23540;DHT22;11947;50.810;4.394;2022-10-31T16:27:30;17.70;99.90
23540;DHT22;11947;50.810;4.394;2022-10-31T16:29:58;17.60;99.90
23540;DHT22;11947;50.810;4.394;2022-10-31T16:32:52;17.60;99.90
23540;DHT22;11947;50.810;4.394;2022-10-31T16:35:33;17.50;99.90
23540;DHT22;11947;50.810;4.394;2022-10-31T16:37:59;17.40;99.90
23540;DHT22;11947;50.810;4.394;2022-10-31T16:40:25;17.40;99.90
23540;DHT22;11947;50.810;4.394;2022-10-31T16:42:50;17.20;99.90
23540;DHT22;11947;50.810;4.394;2022-10-31T16:45:18;17.10;99.90
23540;DHT22;11947;50.810;4.394;2022-10-31T16:47:44;17.10;99.90
23540;DHT22;11947;50.810;4.394;2022-10-31T16:50:26;17.10;99.90
23540;DHT22;11947;50.810;4.394;2022-10-31T16:52:55;17.00;99.90
23540;DHT22;11947;50.810;4.394;2022-10-31T16:55:20;16.90;99.90
23540;DHT22;11947;50.810;4.394;2022-10-31T16:57:51;16.90;99.90
23540;DHT22;11947;50.810;4.394;2022-10-31T17:00:22;16.80;99.90
23540;DHT22;11947;50.810;4.394;2022-10-31T17:02:50;16.80;99.90
23540;DHT22;11947;50.810;4.394;2022-10-31T17:05:18;16.60;99.90
23540;DHT22;11947;50.810;4.394;2022-10-31T17:07:44;16.70;99.90
23540;DHT22;11947;50.810;4.394;2022-10-31T17:10:11;16.50;99.90
23540;DHT22;11947;50.810;4.394;2022-10-31T17:12:40;16.40;99.90
23540;DHT22;11947;50.810;4.394;2022-10-31T17:15:15;16.40;99.90
23540;DHT22;11947;50.810;4.394;2022-10-31T17:17:42;16.40;99.90
23540;DHT22;11947;50.810;4.394;2022-10-31T17:22:42;16.40;99.90
23540;DHT22;11947;50.810;4.394;2022-10-31T17:25:14;16.20;99.90
23540;DHT22;11947;50.810;4.394;2022-10-31T17:27:40;16.50;99.90
23540;DHT22;11947;50.810;4.394;2022-10-31T17:30:07;16.40;99.90
23540;DHT22;11947;50.810;4.394;2022-10-31T17:32:32;16.30;99.90
23540;DHT22;11947;50.810;4.394;2022-10-31T17:34:58;16.40;99.90
23540;DHT22;11947;50.810;4.394;2022-10-31T17:37:23;16.60;99.90
23540;DHT22;11947;50.810;4.394;2022-10-31T17:39:50;16.90;99.90
23540;DHT22;11947;50.810;4.394;2022-10-31T17:42:16;16.80;99.90
23540;DHT22;11947;50.810;4.394;2022-10-31T17:44:42;16.80;99.90
23540;DHT22;11947;50.810;4.394;2022-10-31T17:47:16;16.60;99.90
23540;DHT22;11947;50.810;4.394;2022-10-31T17:49:42;16.70;99.90
23540;DHT22;11947;50.810;4.394;2022-10-31T17:52:09;16.80;99.90
23540;DHT22;11947;50.810;4.394;2022-10-31T17:54:34;16.70;99.90
23540;DHT22;11947;50.810;4.394;2022-10-31T17:57:06;16.60;99.90
23540;DHT22;11947;50.810;4.394;2022-10-31T18:02:09;16.70;99.90
23540;DHT22;11947;50.810;4.394;2022-10-31T18:04:35;16.60;99.90
23540;DHT22;11947;50.810;4.394;2022-10-31T18:07:01;16.60;99.90
23540;DHT22;11947;50.810;4.394;2022-10-31T18:09:27;16.60;99.90
23540;DHT22;11947;50.810;4.394;2022-10-31T18:11:52;16.70;99.90
23540;DHT22;11947;50.810;4.394;2022-10-31T18:14:18;16.70;99.90
23540;DHT22;11947;50.810;4.394;2022-10-31T18:16:45;16.60;99.90
23540;DHT22;11947;50.810;4.394;2022-10-31T18:19:13;16.50;99.90
23540;DHT22;11947;50.810;4.394;2022-10-31T18:21:40;16.50;99.90
23540;DHT22;11947;50.810;4.394;2022-10-31T18:24:07;16.50;99.90
23540;DHT22;11947;50.810;4.394;2022-10-31T18:26:33;16.50;99.90
23540;DHT22;11947;50.810;4.394;2022-10-31T18:28:59;16.60;99.90
23540;DHT22;11947;50.810;4.394;2022-10-31T18:31:25;16.70;99.90
23540;DHT22;11947;50.810;4.394;2022-10-31T18:33:52;16.70;99.90
23540;DHT22;11947;50.810;4.394;2022-10-31T18:36:19;16.70;99.90
23540;DHT22;11947;50.810;4.394;2022-10-31T18:38:45;16.60;99.90
23540;DHT22;11947;50.810;4.394;2022-10-31T18:41:12;16.60;99.90
23540;DHT22;11947;50.810;4.394;2022-10-31T18:43:38;16.60;99.90
23540;DHT22;11947;50.810;4.394;2022-10-31T18:46:05;16.70;99.90
23540;DHT22;11947;50.810;4.394;2022-10-31T18:48:32;16.70;99.90
23540;DHT22;11947;50.810;4.394;2022-10-31T18:51:02;16.70;99.90
23540;DHT22;11947;50.810;4.394;2022-10-31T18:53:28;16.70;99.90
23540;DHT22;11947;50.810;4.394;2022-10-31T18:55:53;16.70;99.90
23540;DHT22;11947;50.810;4.394;2022-10-31T18:58:19;16.80;99.90
23540;DHT22;11947;50.810;4.394;2022-10-31T19:00:45;16.90;99.90
23540;DHT22;11947;50.810;4.394;2022-10-31T19:03:11;16.90;99.90
23540;DHT22;11947;50.810;4.394;2022-10-31T19:05:37;16.90;99.90
23540;DHT22;11947;50.810;4.394;2022-10-31T19:08:04;16.90;99.90
23540;DHT22;11947;50.810;4.394;2022-10-31T19:10:29;16.90;99.90
23540;DHT22;11947;50.810;4.394;2022-10-31T19:12:55;16.80;99.90
23540;DHT22;11947;50.810;4.394;2022-10-31T19:15:21;16.70;99.90
23540;DHT22;11947;50.810;4.394;2022-10-31T19:17:48;16.80;99.90
23540;DHT22;11947;50.810;4.394;2022-10-31T19:20:14;16.70;99.90
23540;DHT22;11947;50.810;4.394;2022-10-31T19:22:43;16.70;99.90
23540;DHT22;11947;50.810;4.394;2022-10-31T19:25:09;16.70;99.90
23540;DHT22;11947;50.810;4.394;2022-10-31T19:27:42;16.70;99.90
23540;DHT22;11947;50.810;4.394;2022-10-31T19:30:26;16.70;99.90
23540;DHT22;11947;50.810;4.394;2022-10-31T19:33:17;16.60;99.90
23540;DHT22;11947;50.810;4.394;2022-10-31T19:36:09;16.70;99.90
23540;DHT22;11947;50.810;4.394;2022-10-31T19:41:46;16.70;99.90
23540;DHT22;11947;50.810;4.394;2022-10-31T19:44:12;16.50;99.90
23540;DHT22;11947;50.810;4.394;2022-10-31T19:46:38;16.40;99.90
23540;DHT22;11947;50.810;4.394;2022-10-31T19:49:09;16.40;99.90
23540;DHT22;11947;50.810;4.394;2022-10-31T19:51:35;16.40;99.90
23540;DHT22;11947;50.810;4.394;2022-10-31T19:54:00;16.40;99.90
23540;DHT22;11947;50.810;4.394;2022-10-31T19:56:26;16.40;99.90
23540;DHT22;11947;50.810;4.394;2022-10-31T19:58:52;16.40;99.90
23540;DHT22;11947;50.810;4.394;2022-10-31T20:01:20;16.50;99.90
23540;DHT22;11947;50.810;4.394;2022-10-31T20:03:46;16.50;99.90
23540;DHT22;11947;50.810;4.394;2022-10-31T20:06:25;16.50;99.90
23540;DHT22;11947;50.810;4.394;2022-10-31T20:08:51;16.60;99.90
23540;DHT22;11947;50.810;4.394;2022-10-31T20:11:17;16.60;99.90
23540;DHT22;11947;50.810;4.394;2022-10-31T20:13:43;16.70;99.90
23540;DHT22;11947;50.810;4.394;2022-10-31T20:16:11;16.70;99.90
23540;DHT22;11947;50.810;4.394;2022-10-31T20:18:37;16.70;99.90
23540;DHT22;11947;50.810;4.394;2022-10-31T20:21:29;16.70;99.90
23540;DHT22;11947;50.810;4.394;2022-10-31T20:23:58;16.80;99.90
23540;DHT22;11947;50.810;4.394;2022-10-31T20:26:25;16.80;99.90
23540;DHT22;11947;50.810;4.394;2022-10-31T20:28:51;16.90;99.90
23540;DHT22;11947;50.810;4.394;2022-10-31T20:31:19;16.90;99.90
23540;DHT22;11947;50.810;4.394;2022-10-31T20:33:46;17.00;99.90
23540;DHT22;11947;50.810;4.394;2022-10-31T20:36:13;17.10;99.90
23540;DHT22;11947;50.810;4.394;2022-10-31T20:38:40;17.10;99.90
23540;DHT22;11947;50.810;4.394;2022-10-31T20:41:08;17.00;99.90
23540;DHT22;11947;50.810;4.394;2022-10-31T20:43:34;16.90;99.90
23540;DHT22;11947;50.810;4.394;2022-10-31T20:46:06;16.70;99.90
23540;DHT22;11947;50.810;4.394;2022-10-31T20:48:33;16.70;99.90
23540;DHT22;11947;50.810;4.394;2022-10-31T20:51:04;16.70;99.90
23540;DHT22;11947;50.810;4.394;2022-10-31T20:53:30;16.70;99.90
23540;DHT22;11947;50.810;4.394;2022-10-31T20:56:17;16.50;99.90
23540;DHT22;11947;50.810;4.394;2022-10-31T20:58:46;16.50;99.90
23540;DHT22;11947;50.810;4.394;2022-10-31T21:01:23;16.60;99.90
23540;DHT22;11947;50.810;4.394;2022-10-31T21:03:49;16.70;99.90
23540;DHT22;11947;50.810;4.394;2022-10-31T21:06:15;16.80;99.90
23540;DHT22;11947;50.810;4.394;2022-10-31T21:08:44;16.80;99.90
23540;DHT22;11947;50.810;4.394;2022-10-31T21:11:22;16.80;99.90
23540;DHT22;11947;50.810;4.394;2022-10-31T21:13:49;16.80;99.90
23540;DHT22;11947;50.810;4.394;2022-10-31T21:16:18;16.70;99.90
23540;DHT22;11947;50.810;4.394;2022-10-31T21:18:44;16.60;99.90
23540;DHT22;11947;50.810;4.394;2022-10-31T21:21:28;16.80;99.90
23540;DHT22;11947;50.810;4.394;2022-10-31T21:24:13;16.90;99.90
23540;DHT22;11947;50.810;4.394;2022-10-31T21:26:42;16.90;99.90
23540;DHT22;11947;50.810;4.394;2022-10-31T21:29:08;16.90;99.90
23540;DHT22;11947;50.810;4.394;2022-10-31T21:31:36;17.00;99.90
23540;DHT22;11947;50.810;4.394;2022-10-31T21:36:32;17.00;99.90
23540;DHT22;11947;50.810;4.394;2022-10-31T21:39:01;17.00;99.90
23540;DHT22;11947;50.810;4.394;2022-10-31T21:41:29;16.90;99.90
23540;DHT22;11947;50.810;4.394;2022-10-31T21:44:00;16.90;99.90
23540;DHT22;11947;50.810;4.394;2022-10-31T21:46:34;16.90;99.90
23540;DHT22;11947;50.810;4.394;2022-10-31T21:49:05;17.00;99.90
23540;DHT22;11947;50.810;4.394;2022-10-31T21:51:33;17.10;99.90
23540;DHT22;11947;50.810;4.394;2022-10-31T21:54:00;17.00;99.90
23540;DHT22;11947;50.810;4.394;2022-10-31T21:56:45;17.00;99.90
23540;DHT22;11947;50.810;4.394;2022-10-31T21:59:14;17.10;99.90
23540;DHT22;11947;50.810;4.394;2022-10-31T22:01:44;17.10;99.90
23540;DHT22;11947;50.810;4.394;2022-10-31T22:04:11;17.10;99.90
23540;DHT22;11947;50.810;4.394;2022-10-31T22:06:39;17.20;99.90
23540;DHT22;11947;50.810;4.394;2022-10-31T22:09:07;17.30;99.90
23540;DHT22;11947;50.810;4.394;2022-10-31T22:11:36;17.20;99.90
23540;DHT22;11947;50.810;4.394;2022-10-31T22:14:02;17.20;99.90
23540;DHT22;11947;50.810;4.394;2022-10-31T22:16:29;17.20;99.90
23540;DHT22;11947;50.810;4.394;2022-10-31T22:18:57;17.40;99.90
23540;DHT22;11947;50.810;4.394;2022-10-31T22:21:25;17.40;99.90
23540;DHT22;11947;50.810;4.394;2022-10-31T22:23:55;17.50;99.90
23540;DHT22;11947;50.810;4.394;2022-10-31T22:26:22;17.60;99.90
23540;DHT22;11947;50.810;4.394;2022-10-31T22:28:52;17.60;99.90
23540;DHT22;11947;50.810;4.394;2022-10-31T22:31:19;17.40;99.90
23540;DHT22;11947;50.810;4.394;2022-10-31T22:33:46;17.30;99.90
23540;DHT22;11947;50.810;4.394;2022-10-31T22:36:14;17.40;99.90
23540;DHT22;11947;50.810;4.394;2022-10-31T22:38:42;17.30;99.90
23540;DHT22;11947;50.810;4.394;2022-10-31T22:41:12;17.20;99.90
23540;DHT22;11947;50.810;4.394;2022-10-31T22:43:40;17.10;99.90
23540;DHT22;11947;50.810;4.394;2022-10-31T22:46:09;17.10;99.90
23540;DHT22;11947;50.810;4.394;2022-10-31T22:48:42;17.00;99.90
23540;DHT22;11947;50.810;4.394;2022-10-31T22:51:21;16.90;99.90
23540;DHT22;11947;50.810;4.394;2022-10-31T22:53:47;16.90;99.90
23540;DHT22;11947;50.810;4.394;2022-10-31T22:56:16;16.90;99.90
23540;DHT22;11947;50.810;4.394;2022-10-31T22:58:42;16.90;99.90
23540;DHT22;11947;50.810;4.394;2022-10-31T23:01:10;16.90;99.90
23540;DHT22;11947;50.810;4.394;2022-10-31T23:03:36;16.80;99.90
23540;DHT22;11947;50.810;4.394;2022-10-31T23:06:03;16.80;99.90
23540;DHT22;11947;50.810;4.394;2022-10-31T23:08:30;16.90;99.90
23540;DHT22;11947;50.810;4.394;2022-10-31T23:10:56;16.90;99.90
23540;DHT22;11947;50.810;4.394;2022-10-31T23:13:24;17.00;99.90
23540;DHT22;11947;50.810;4.394;2022-10-31T23:16:09;16.80;99.90
23540;DHT22;11947;50.810;4.394;2022-10-31T23:18:36;16.90;99.90
23540;DHT22;11947;50.810;4.394;2022-10-31T23:21:04;16.90;99.90
23540;DHT22;11947;50.810;4.394;2022-10-31T23:23:34;17.10;99.90
23540;DHT22;11947;50.810;4.394;2022-10-31T23:26:00;17.20;99.90
23540;DHT22;11947;50.810;4.394;2022-10-31T23:28:45;17.40;99.90
23540;DHT22;11947;50.810;4.394;2022-10-31T23:31:10;17.50;99.90
23540;DHT22;11947;50.810;4.394;2022-10-31T23:33:36;17.60;99.90
23540;DHT22;11947;50.810;4.394;2022-10-31T23:36:02;17.60;99.90
23540;DHT22;11947;50.810;4.394;2022-10-31T23:38:31;17.60;99.90
23540;DHT22;11947;50.810;4.394;2022-10-31T23:40:56;17.60;99.90
23540;DHT22;11947;50.810;4.394;2022-10-31T23:43:22;17.50;99.90
23540;DHT22;11947;50.810;4.394;2022-10-31T23:45:48;17.50;99.90
23540;DHT22;11947;50.810;4.394;2022-10-31T23:48:16;17.60;99.90
23540;DHT22;11947;50.810;4.394;2022-10-31T23:50:45;17.70;99.90
23540;DHT22;11947;50.810;4.394;2022-10-31T23:53:13;17.80;99.90
23540;DHT22;11947;50.810;4.394;2022-10-31T23:55:39;17.80;99.90
23540;DHT22;11947;50.810;4.394;2022-10-31T23:58:04;17.80;99.90
